Time;durP1;ratioP1;P1;durP2;ratioP2;P2;SDS_P1;SDS_P2;PMS_P1;PMS_P2;Temp;Humidity;BMP_temperature;BMP_pressure;BME280_temperature;BME280_humidity;BME280_pressure;Samples;Min_cycle;Max_cycle;Signal;HPM_P1;HPM_P2
2022/03/09 00:02:15;;;;;;;25.03;9.63;;;;;;;;;;5008473;28;20471;-80
2022/03/09 00:04:43;;;;;;;22.20;9.13;;;;;;;;;;5008681;28;20518;-78
2022/03/09 00:07:11;;;;;;;27.70;9.50;;;;;;;;;;5003235;28;20703;-77
2022/03/09 00:09:38;;;;;;;27.77;9.53;;;;;;;;;;5005434;28;20495;-79
2022/03/09 00:12:06;;;;;;;27.33;9.73;;;;;;;;;;5003797;28;20448;-79
2022/03/09 00:14:33;;;;;;;26.13;9.77;;;;;;;;;;5008949;28;20470;-78
2022/03/09 00:17:00;;;;;;;24.90;9.47;;;;;;;;;;5004008;28;20495;-78
2022/03/09 00:19:27;;;;;;;24.80;9.63;;;;;;;;;;5009516;28;20471;-79
2022/03/09 00:21:56;;;;;;;29.87;11.07;;;;;;;;;;5008529;28;20473;-79
2022/03/09 00:24:23;;;;;;;30.60;10.00;;;;;;;;;;5009232;28;20487;-79
2022/03/09 00:26:51;;;;;;;43.97;10.37;;;;;;;;;;5006834;28;20491;-79
2022/03/09 00:29:18;;;;;;;30.50;10.53;;;;;;;;;;5011306;28;20462;-79
2022/03/09 00:31:45;;;;;;;25.60;10.00;;;;;;;;;;5005176;28;20561;-81
2022/03/09 00:34:12;;;;;;;27.77;10.53;;;;;;;;;;5007368;28;20550;-79
2022/03/09 00:36:40;;;;;;;36.40;11.20;;;;;;;;;;5001923;28;20472;-80
2022/03/09 00:39:09;;;;;;;32.70;10.73;;;;;;;;;;5000242;28;20476;-80
2022/03/09 00:41:36;;;;;;;30.33;11.10;;;;;;;;;;5005089;28;20960;-78
2022/03/09 00:44:03;;;;;;;26.17;10.37;;;;;;;;;;5001529;28;21033;-80
2022/03/09 00:46:30;;;;;;;34.93;10.67;;;;;;;;;;5008050;28;20479;-79
2022/03/09 00:48:59;;;;;;;29.80;11.03;;;;;;;;;;5003377;28;20467;-80
2022/03/09 00:51:26;;;;;;;32.53;10.63;;;;;;;;;;5001363;28;20877;-81
2022/03/09 00:53:53;;;;;;;25.80;9.30;;;;;;;;;;5003577;28;20864;-80
2022/03/09 00:56:21;;;;;;;22.37;9.60;;;;;;;;;;5002609;28;20498;-79
2022/03/09 00:58:49;;;;;;;27.43;10.23;;;;;;;;;;5004783;28;20884;-78
2022/03/09 01:01:16;;;;;;;27.43;9.67;;;;;;;;;;5011371;28;20473;-79
2022/03/09 01:03:43;;;;;;;27.33;10.57;;;;;;;;;;5006101;28;20564;-79
2022/03/09 01:06:10;;;;;;;28.60;10.60;;;;;;;;;;5010330;28;20478;-81
2022/03/09 01:08:38;;;;;;;32.27;10.43;;;;;;;;;;5002545;28;20466;-79
2022/03/09 01:11:05;;;;;;;38.47;10.77;;;;;;;;;;5004502;28;20464;-77
2022/03/09 01:13:34;;;;;;;29.10;10.63;;;;;;;;;;5005999;28;20603;-78
2022/03/09 01:16:01;;;;;;;26.63;10.30;;;;;;;;;;5006903;28;20456;-78
2022/03/09 01:18:28;;;;;;;24.57;9.70;;;;;;;;;;5005338;28;20451;-79
2022/03/09 01:20:55;;;;;;;27.77;9.87;;;;;;;;;;5006307;28;20474;-79
2022/03/09 01:23:22;;;;;;;27.00;10.00;;;;;;;;;;5005800;28;20472;-80
2022/03/09 01:25:51;;;;;;;37.80;10.00;;;;;;;;;;5003657;28;20482;-77
2022/03/09 01:28:19;;;;;;;29.63;11.13;;;;;;;;;;5010678;28;20549;-78
2022/03/09 01:30:47;;;;;;;28.93;9.97;;;;;;;;;;5009307;28;20475;-80
2022/03/09 01:33:14;;;;;;;29.77;10.13;;;;;;;;;;5009841;28;20472;-79
2022/03/09 01:35:41;;;;;;;34.10;10.73;;;;;;;;;;5003269;28;20471;-79
2022/03/09 01:38:09;;;;;;;27.17;10.20;;;;;;;;;;5009961;28;20486;-77
2022/03/09 01:40:36;;;;;;;29.73;10.63;;;;;;;;;;5009747;28;20555;-78
2022/03/09 01:43:03;;;;;;;30.07;10.93;;;;;;;;;;5006845;28;20471;-78
2022/03/09 01:45:31;;;;;;;27.20;10.40;;;;;;;;;;5008051;28;20487;-78
2022/03/09 01:47:59;;;;;;;30.93;11.40;;;;;;;;;;5006860;28;20816;-80
2022/03/09 01:50:26;;;;;;;23.67;9.63;;;;;;;;;;5003798;28;20462;-80
2022/03/09 01:52:54;;;;;;;34.40;10.60;;;;;;;;;;5008346;28;20597;-79
2022/03/09 01:55:21;;;;;;;33.63;10.83;;;;;;;;;;5008857;28;20465;-78
2022/03/09 01:57:48;;;;;;;31.83;10.63;;;;;;;;;;5004752;28;20473;-78
2022/03/09 02:00:17;;;;;;;29.17;11.00;;;;;;;;;;5010554;28;20546;-78
2022/03/09 02:02:44;;;;;;;29.53;9.80;;;;;;;;;;5003964;28;20481;-79
2022/03/09 02:05:15;;;;;;;31.33;9.90;;;;;;;;;;5002668;28;20459;-79
2022/03/09 02:10:28;;;;;;;29.50;10.00;;;;;;;;;;5011572;28;20454;-78
2022/03/09 02:12:55;;;;;;;29.00;10.17;;;;;;;;;;5005416;28;21037;-79
2022/03/09 02:15:22;;;;;;;35.03;11.00;;;;;;;;;;5003301;28;20498;-79
2022/03/09 02:17:49;;;;;;;25.33;10.27;;;;;;;;;;5003068;28;20549;-80
2022/03/09 02:20:18;;;;;;;26.33;10.77;;;;;;;;;;5009606;28;20470;-80
2022/03/09 02:22:46;;;;;;;27.33;9.80;;;;;;;;;;5000868;28;20978;-79
2022/03/09 02:25:15;;;;;;;25.03;9.37;;;;;;;;;;5003176;28;20462;-78
2022/03/09 02:27:43;;;;;;;30.37;10.40;;;;;;;;;;5013389;28;20566;-80
2022/03/09 02:30:12;;;;;;;29.43;10.33;;;;;;;;;;5014021;28;20490;-78
2022/03/09 02:32:43;;;;;;;22.83;9.33;;;;;;;;;;5009249;28;20493;-79
2022/03/09 02:35:10;;;;;;;32.50;10.13;;;;;;;;;;5008607;28;20490;-78
2022/03/09 02:37:38;;;;;;;32.50;11.17;;;;;;;;;;5010612;28;20736;-79
2022/03/09 02:40:09;;;;;;;31.77;10.43;;;;;;;;;;5011508;28;20547;-78
2022/03/09 02:42:36;;;;;;;32.97;10.53;;;;;;;;;;5008935;28;20511;-79
2022/03/09 02:45:04;;;;;;;28.83;9.73;;;;;;;;;;5009392;28;20464;-78
2022/03/09 02:47:34;;;;;;;30.83;9.57;;;;;;;;;;5009989;28;20479;-78
2022/03/09 02:50:02;;;;;;;28.77;9.97;;;;;;;;;;5009798;28;20470;-79
2022/03/09 02:52:29;;;;;;;29.20;9.60;;;;;;;;;;5008205;28;20928;-79
2022/03/09 02:54:56;;;;;;;29.80;10.47;;;;;;;;;;5004396;28;20467;-79
2022/03/09 02:57:24;;;;;;;34.23;10.87;;;;;;;;;;5007965;28;20467;-78
2022/03/09 02:59:51;;;;;;;30.23;10.87;;;;;;;;;;5004672;28;20451;-79
2022/03/09 03:02:19;;;;;;;29.17;9.27;;;;;;;;;;5002524;28;20556;-79
2022/03/09 03:04:46;;;;;;;28.73;9.73;;;;;;;;;;5011883;28;20459;-79
2022/03/09 03:07:13;;;;;;;24.40;9.73;;;;;;;;;;5009539;28;21080;-79
2022/03/09 03:09:40;;;;;;;32.63;10.27;;;;;;;;;;5009716;28;20865;-78
2022/03/09 03:12:07;;;;;;;26.23;9.70;;;;;;;;;;5008350;28;20497;-78
2022/03/09 03:14:36;;;;;;;30.03;9.93;;;;;;;;;;5004722;28;20463;-79
2022/03/09 03:17:03;;;;;;;25.47;9.40;;;;;;;;;;5005172;28;20467;-80
2022/03/09 03:19:30;;;;;;;25.83;9.57;;;;;;;;;;5001790;28;20545;-80
2022/03/09 03:21:58;;;;;;;30.00;10.43;;;;;;;;;;5001699;28;20507;-80
2022/03/09 03:24:27;;;;;;;24.70;9.10;;;;;;;;;;5009353;28;20492;-79
2022/03/09 03:26:54;;;;;;;26.23;9.13;;;;;;;;;;5004089;28;20566;-78
2022/03/09 03:29:24;;;;;;;32.10;10.27;;;;;;;;;;5008155;28;20467;-78
2022/03/09 03:31:53;;;;;;;27.80;9.27;;;;;;;;;;5005072;28;20879;-77
2022/03/09 03:34:20;;;;;;;27.10;9.77;;;;;;;;;;5006736;28;20487;-79
2022/03/09 03:36:47;;;;;;;27.27;9.93;;;;;;;;;;5001092;28;21320;-80
2022/03/09 03:39:14;;;;;;;32.93;11.00;;;;;;;;;;5002587;28;20961;-79
2022/03/09 03:41:41;;;;;;;24.87;9.50;;;;;;;;;;5001965;28;20467;-78
2022/03/09 03:44:09;;;;;;;26.73;8.93;;;;;;;;;;5002588;28;20507;-77
2022/03/09 03:46:36;;;;;;;28.00;9.77;;;;;;;;;;5003221;28;20494;-78
2022/03/09 03:49:05;;;;;;;28.00;9.40;;;;;;;;;;5007166;28;20948;-79
2022/03/09 03:51:32;;;;;;;27.10;9.73;;;;;;;;;;5004163;28;20455;-78
2022/03/09 03:53:59;;;;;;;29.57;8.43;;;;;;;;;;5005213;28;20471;-79
2022/03/09 03:56:27;;;;;;;23.00;8.63;;;;;;;;;;5001700;28;20498;-80
2022/03/09 03:58:54;;;;;;;28.33;9.30;;;;;;;;;;5002378;28;20904;-78
2022/03/09 04:01:21;;;;;;;23.37;9.07;;;;;;;;;;5004314;28;20808;-78
2022/03/09 04:03:48;;;;;;;22.20;8.70;;;;;;;;;;5003694;28;21005;-79
2022/03/09 04:06:17;;;;;;;31.03;9.73;;;;;;;;;;5004452;28;21001;-78
2022/03/09 04:08:44;;;;;;;25.57;9.20;;;;;;;;;;5003343;28;20471;-77
2022/03/09 04:11:11;;;;;;;24.17;9.17;;;;;;;;;;5000601;28;20970;-79
2022/03/09 04:13:38;;;;;;;32.07;9.77;;;;;;;;;;5004407;28;20565;-79
2022/03/09 04:16:06;;;;;;;31.23;8.90;;;;;;;;;;5008510;28;20815;-78
2022/03/09 04:18:33;;;;;;;26.27;9.00;;;;;;;;;;5002696;28;21004;-78
2022/03/09 04:21:00;;;;;;;23.30;8.70;;;;;;;;;;5004890;28;20470;-78
2022/03/09 04:23:29;;;;;;;26.47;9.43;;;;;;;;;;5007626;28;20578;-78
2022/03/09 04:25:56;;;;;;;26.67;9.03;;;;;;;;;;5004750;28;20940;-78
2022/03/09 04:28:23;;;;;;;27.47;9.73;;;;;;;;;;5003370;28;20459;-78
2022/03/09 04:30:50;;;;;;;26.07;8.33;;;;;;;;;;5004551;28;20475;-78
2022/03/09 04:33:17;;;;;;;22.70;8.57;;;;;;;;;;5002900;28;20479;-77
2022/03/09 04:35:44;;;;;;;27.10;9.43;;;;;;;;;;5007027;28;20455;-80
2022/03/09 04:38:12;;;;;;;31.60;10.50;;;;;;;;;;5009324;28;20452;-79
2022/03/09 04:40:40;;;;;;;35.97;9.70;;;;;;;;;;5012196;28;20500;-80
2022/03/09 04:43:07;;;;;;;28.50;10.17;;;;;;;;;;5009167;28;20711;-79
2022/03/09 04:45:35;;;;;;;23.43;9.23;;;;;;;;;;5007499;28;21027;-77
2022/03/09 04:48:02;;;;;;;28.03;9.43;;;;;;;;;;5005147;28;20847;-79
2022/03/09 04:50:29;;;;;;;25.57;9.60;;;;;;;;;;5005166;28;20491;-80
2022/03/09 04:52:56;;;;;;;26.43;9.73;;;;;;;;;;5006687;28;20487;-79
2022/03/09 04:55:23;;;;;;;31.20;9.40;;;;;;;;;;5012765;28;20494;-81
2022/03/09 04:57:52;;;;;;;20.90;8.00;;;;;;;;;;5011530;28;20543;-75
2022/03/09 05:00:19;;;;;;;25.70;8.93;;;;;;;;;;5011445;28;20978;-78
2022/03/09 05:02:46;;;;;;;25.93;8.93;;;;;;;;;;5002174;28;20472;-76
2022/03/09 05:05:15;;;;;;;25.53;9.00;;;;;;;;;;5016438;28;20486;-79
2022/03/09 05:07:42;;;;;;;27.77;8.90;;;;;;;;;;5009128;28;20488;-81
2022/03/09 05:10:10;;;;;;;22.30;8.70;;;;;;;;;;5005560;28;21068;-77
2022/03/09 05:12:37;;;;;;;23.80;8.57;;;;;;;;;;5006000;28;20498;-78
2022/03/09 05:15:07;;;;;;;21.87;8.47;;;;;;;;;;5007528;28;20640;-77
2022/03/09 05:17:34;;;;;;;21.40;8.00;;;;;;;;;;5008498;28;20893;-79
2022/03/09 05:20:03;;;;;;;32.70;9.37;;;;;;;;;;5005053;28;20551;-78
2022/03/09 05:22:31;;;;;;;26.27;7.97;;;;;;;;;;5007654;28;20492;-76
2022/03/09 05:24:58;;;;;;;20.80;8.03;;;;;;;;;;5004044;28;20560;-78
2022/03/09 05:27:27;;;;;;;26.37;8.83;;;;;;;;;;5009135;28;20487;-79
2022/03/09 05:29:54;;;;;;;22.30;8.03;;;;;;;;;;5002507;28;20843;-79
2022/03/09 05:32:23;;;;;;;23.10;7.90;;;;;;;;;;5006972;28;20536;-79
2022/03/09 05:34:51;;;;;;;27.07;10.03;;;;;;;;;;5006446;28;20481;-77
2022/03/09 05:37:18;;;;;;;25.03;8.37;;;;;;;;;;5006969;28;20561;-78
2022/03/09 05:39:45;;;;;;;25.40;9.00;;;;;;;;;;5004097;28;20653;-78
2022/03/09 05:42:12;;;;;;;29.50;9.47;;;;;;;;;;5005426;28;21003;-79
2022/03/09 05:44:40;;;;;;;29.20;9.67;;;;;;;;;;5005309;28;20467;-80
2022/03/09 05:47:07;;;;;;;26.20;10.43;;;;;;;;;;5008537;28;20495;-79
2022/03/09 05:49:36;;;;;;;34.10;9.23;;;;;;;;;;5010643;28;20466;-78
2022/03/09 05:52:04;;;;;;;28.83;8.37;;;;;;;;;;5009785;28;20467;-79
2022/03/09 05:54:31;;;;;;;24.03;8.37;;;;;;;;;;5008811;28;20489;-78
2022/03/09 05:56:58;;;;;;;24.47;9.73;;;;;;;;;;5007447;28;20459;-78
2022/03/09 05:59:25;;;;;;;28.17;9.33;;;;;;;;;;5008484;28;20467;-79
2022/03/09 06:01:52;;;;;;;28.53;9.90;;;;;;;;;;5002617;28;20464;-79
2022/03/09 06:04:19;;;;;;;33.33;10.00;;;;;;;;;;5002493;28;20547;-78
2022/03/09 06:06:48;;;;;;;29.17;10.37;;;;;;;;;;5001572;28;21229;-78
2022/03/09 06:09:15;;;;;;;34.97;10.83;;;;;;;;;;5006484;28;20451;-79
2022/03/09 06:11:43;;;;;;;31.07;9.90;;;;;;;;;;5001769;28;20492;-78
2022/03/09 06:14:10;;;;;;;32.73;10.70;;;;;;;;;;5008697;28;20843;-78
2022/03/09 06:16:37;;;;;;;31.10;9.63;;;;;;;;;;5008254;28;20497;-79
2022/03/09 06:19:04;;;;;;;29.87;9.40;;;;;;;;;;5006534;28;21037;-79
2022/03/09 06:21:31;;;;;;;22.17;8.63;;;;;;;;;;5004930;28;20455;-78
2022/03/09 06:24:00;;;;;;;28.70;8.97;;;;;;;;;;5013215;28;20518;-78
2022/03/09 06:26:27;;;;;;;21.80;8.57;;;;;;;;;;5006313;28;20551;-79
2022/03/09 06:28:54;;;;;;;28.27;9.00;;;;;;;;;;5005484;28;20575;-80
2022/03/09 06:31:21;;;;;;;38.27;9.37;;;;;;;;;;5008087;28;20477;-79
2022/03/09 06:33:48;;;;;;;23.93;8.83;;;;;;;;;;5005343;28;20492;-79
2022/03/09 06:36:16;;;;;;;23.37;8.47;;;;;;;;;;5006764;28;20574;-79
2022/03/09 06:38:44;;;;;;;24.27;9.30;;;;;;;;;;5004561;28;20460;-79
2022/03/09 06:41:12;;;;;;;26.87;9.07;;;;;;;;;;5005771;28;20467;-79
2022/03/09 06:43:40;;;;;;;26.80;8.90;;;;;;;;;;5007789;28;20562;-78
2022/03/09 06:46:07;;;;;;;27.80;9.00;;;;;;;;;;5005133;28;21044;-79
2022/03/09 06:48:34;;;;;;;21.43;8.63;;;;;;;;;;5006518;28;20510;-80
2022/03/09 06:51:01;;;;;;;27.93;9.27;;;;;;;;;;5006381;28;20955;-80
2022/03/09 06:53:29;;;;;;;22.57;8.60;;;;;;;;;;5003792;28;20570;-80
2022/03/09 06:55:56;;;;;;;28.23;8.57;;;;;;;;;;5007348;28;20468;-80
2022/03/09 06:58:24;;;;;;;27.53;9.73;;;;;;;;;;5006368;28;20878;-80
2022/03/09 07:00:52;;;;;;;29.77;9.87;;;;;;;;;;5002763;28;20488;-80
2022/03/09 07:03:19;;;;;;;27.47;9.67;;;;;;;;;;5007503;28;20823;-79
2022/03/09 07:05:47;;;;;;;28.80;10.03;;;;;;;;;;5001223;28;20587;-79
2022/03/09 07:08:14;;;;;;;31.03;11.03;;;;;;;;;;5004492;28;20566;-80
2022/03/09 07:10:41;;;;;;;24.73;9.93;;;;;;;;;;5007437;28;20504;-80
2022/03/09 07:13:09;;;;;;;27.90;10.23;;;;;;;;;;5006240;28;20491;-79
2022/03/09 07:15:37;;;;;;;31.13;10.90;;;;;;;;;;5010060;28;20513;-79
2022/03/09 07:18:04;;;;;;;33.63;11.77;;;;;;;;;;5003133;28;20464;-79
2022/03/09 07:20:32;;;;;;;35.30;11.27;;;;;;;;;;5004281;28;20462;-78
2022/03/09 07:22:59;;;;;;;24.50;10.90;;;;;;;;;;5008803;28;20935;-79
2022/03/09 07:25:26;;;;;;;25.70;10.17;;;;;;;;;;5001557;28;20567;-79
2022/03/09 07:27:53;;;;;;;23.43;9.00;;;;;;;;;;5004657;28;20545;-78
2022/03/09 07:30:20;;;;;;;26.87;9.60;;;;;;;;;;5005526;28;20466;-79
2022/03/09 07:32:49;;;;;;;25.03;10.70;;;;;;;;;;5005545;28;20491;-78
2022/03/09 07:35:16;;;;;;;25.77;10.10;;;;;;;;;;5000443;28;20476;-79
2022/03/09 07:37:43;;;;;;;26.70;10.33;;;;;;;;;;4998324;28;20985;-78
2022/03/09 07:40:11;;;;;;;30.03;11.37;;;;;;;;;;4999049;28;20463;-79
2022/03/09 07:42:38;;;;;;;28.83;10.57;;;;;;;;;;4999189;28;20571;-79
2022/03/09 07:45:07;;;;;;;23.73;9.43;;;;;;;;;;4999904;28;20511;-79
2022/03/09 07:47:34;;;;;;;22.67;8.70;;;;;;;;;;4997749;28;20234;-80
2022/03/09 07:50:03;;;;;;;22.97;9.37;;;;;;;;;;4999663;28;20206;-79
2022/03/09 07:52:30;;;;;;;17.27;9.07;;;;;;;;;;5003704;28;20220;-80
2022/03/09 07:54:57;;;;;;;16.60;8.30;;;;;;;;;;5000248;28;20208;-80
2022/03/09 07:57:24;;;;;;;16.47;8.87;;;;;;;;;;4998580;28;20721;-79
2022/03/09 07:59:51;;;;;;;18.87;8.17;;;;;;;;;;5003621;28;20287;-79
2022/03/09 08:02:19;;;;;;;16.47;8.20;;;;;;;;;;5021348;28;20286;-79
2022/03/09 08:04:46;;;;;;;16.53;8.37;;;;;;;;;;5008532;28;20204;-80
2022/03/09 08:07:14;;;;;;;18.57;8.50;;;;;;;;;;5006445;28;20279;-80
2022/03/09 08:09:42;;;;;;;15.17;8.00;;;;;;;;;;5005321;28;20223;-79
2022/03/09 08:12:11;;;;;;;16.87;8.43;;;;;;;;;;5004644;28;20315;-80
2022/03/09 08:14:38;;;;;;;19.10;8.27;;;;;;;;;;4999638;28;20345;-79
2022/03/09 08:17:06;;;;;;;21.00;9.73;;;;;;;;;;5006906;28;20250;-80
2022/03/09 08:19:34;;;;;;;17.20;8.07;;;;;;;;;;5005267;28;20547;-78
2022/03/09 08:22:01;;;;;;;14.70;8.23;;;;;;;;;;5003765;28;20209;-80
2022/03/09 08:24:30;;;;;;;14.70;8.17;;;;;;;;;;5009985;28;20219;-77
2022/03/09 08:26:57;;;;;;;19.90;8.70;;;;;;;;;;5020078;28;20231;-78
2022/03/09 08:29:24;;;;;;;18.70;9.37;;;;;;;;;;5004984;28;20229;-78
2022/03/09 08:31:51;;;;;;;16.37;9.23;;;;;;;;;;4997311;28;20287;-77
2022/03/09 08:34:19;;;;;;;17.13;8.33;;;;;;;;;;5003587;28;20312;-78
2022/03/09 08:36:46;;;;;;;20.77;9.20;;;;;;;;;;5004211;28;20319;-79
2022/03/09 08:39:13;;;;;;;16.33;8.63;;;;;;;;;;5005634;28;20208;-78
2022/03/09 08:41:44;;;;;;;15.90;8.73;;;;;;;;;;5012276;28;20207;-79
2022/03/09 08:44:11;;;;;;;23.70;8.97;;;;;;;;;;5024778;28;20224;-79
2022/03/09 08:46:38;;;;;;;15.67;8.40;;;;;;;;;;5010656;28;20200;-79
2022/03/09 08:49:06;;;;;;;17.37;9.50;;;;;;;;;;5003012;28;20307;-80
2022/03/09 08:51:34;;;;;;;21.83;9.63;;;;;;;;;;5005522;28;20205;-80
2022/03/09 08:54:01;;;;;;;23.00;9.63;;;;;;;;;;5001939;28;20220;-80
2022/03/09 08:56:28;;;;;;;19.67;9.43;;;;;;;;;;5000803;28;20211;-79
2022/03/09 08:58:57;;;;;;;20.17;9.90;;;;;;;;;;5002574;28;20251;-79
2022/03/09 09:01:24;;;;;;;23.20;10.77;;;;;;;;;;5000437;28;20677;-78
2022/03/09 09:03:52;;;;;;;21.43;10.17;;;;;;;;;;5003355;28;20240;-76
2022/03/09 09:06:20;;;;;;;25.27;11.40;;;;;;;;;;5005728;28;20859;-81
2022/03/09 09:08:47;;;;;;;20.47;10.13;;;;;;;;;;5000989;28;20279;-80
2022/03/09 09:11:14;;;;;;;23.63;10.90;;;;;;;;;;5002275;28;20675;-78
2022/03/09 09:13:41;;;;;;;25.13;10.50;;;;;;;;;;5000387;28;20216;-79
2022/03/09 09:16:09;;;;;;;20.20;8.57;;;;;;;;;;5003405;28;20655;-78
2022/03/09 09:18:38;;;;;;;28.73;9.33;;;;;;;;;;4999347;28;20687;-78
2022/03/09 09:21:05;;;;;;;21.70;8.20;;;;;;;;;;5003476;28;20201;-79
2022/03/09 09:23:32;;;;;;;23.90;9.47;;;;;;;;;;5005479;28;21038;-79
2022/03/09 09:25:59;;;;;;;21.77;8.53;;;;;;;;;;5004272;28;20209;-79
2022/03/09 09:28:26;;;;;;;16.30;7.30;;;;;;;;;;5007371;28;20223;-78
2022/03/09 09:30:56;;;;;;;15.47;7.83;;;;;;;;;;5005993;28;20213;-79
2022/03/09 09:33:24;;;;;;;15.93;7.70;;;;;;;;;;5005026;28;20232;-80
2022/03/09 09:35:52;;;;;;;16.50;7.63;;;;;;;;;;5005167;28;20299;-78
2022/03/09 09:38:19;;;;;;;16.13;6.80;;;;;;;;;;5003842;28;20283;-79
2022/03/09 09:40:46;;;;;;;16.33;7.03;;;;;;;;;;5006226;28;20208;-79
2022/03/09 09:43:14;;;;;;;22.50;6.90;;;;;;;;;;5008889;28;20256;-80
2022/03/09 09:45:42;;;;;;;16.43;6.53;;;;;;;;;;5005104;28;20207;-78
2022/03/09 09:48:10;;;;;;;13.40;5.50;;;;;;;;;;5008062;28;20232;-79
2022/03/09 09:50:41;;;;;;;12.77;6.03;;;;;;;;;;5006821;28;20196;-81
2022/03/09 09:53:10;;;;;;;13.70;5.50;;;;;;;;;;5004192;28;20265;-78
2022/03/09 09:55:38;;;;;;;13.47;6.03;;;;;;;;;;5007583;28;20216;-79
2022/03/09 09:58:05;;;;;;;10.97;5.50;;;;;;;;;;5005700;28;20212;-78
2022/03/09 10:00:33;;;;;;;13.67;6.13;;;;;;;;;;5007952;28;20246;-79
2022/03/09 10:03:00;;;;;;;13.67;6.20;;;;;;;;;;5007567;28;20232;-77
2022/03/09 10:05:27;;;;;;;13.83;5.97;;;;;;;;;;5004400;28;20288;-79
2022/03/09 10:08:17;;;;;;;12.87;6.20;;;;;;;;;;5004206;28;20235;-77
2022/03/09 10:10:45;;;;;;;12.00;6.20;;;;;;;;;;5005796;28;20200;-76
2022/03/09 10:13:17;;;;;;;12.37;5.83;;;;;;;;;;5002603;28;20236;-78
2022/03/09 10:15:45;;;;;;;12.87;4.97;;;;;;;;;;5009316;28;20674;-76
2022/03/09 10:18:13;;;;;;;10.93;5.43;;;;;;;;;;5004725;28;20205;-80
2022/03/09 10:20:40;;;;;;;11.00;5.47;;;;;;;;;;4999213;28;20393;-77
2022/03/09 10:23:08;;;;;;;13.23;5.37;;;;;;;;;;5000504;28;20596;-78
2022/03/09 10:25:38;;;;;;;13.67;5.70;;;;;;;;;;4996702;28;20208;-77
2022/03/09 10:28:07;;;;;;;11.27;6.27;;;;;;;;;;4999178;28;20240;-79
2022/03/09 10:30:35;;;;;;;11.60;5.43;;;;;;;;;;5003617;28;20211;-79
2022/03/09 10:33:03;;;;;;;11.40;5.80;;;;;;;;;;4998996;28;20657;-79
2022/03/09 10:35:41;;;;;;;10.33;5.37;;;;;;;;;;5028964;22;21749;-77
2022/03/09 10:38:09;;;;;;;11.10;5.70;;;;;;;;;;5019873;28;20652;-78
2022/03/09 10:40:42;;;;;;;9.47;5.23;;;;;;;;;;5014147;28;20290;-78
2022/03/09 10:43:13;;;;;;;13.00;5.37;;;;;;;;;;5015798;28;20229;-77
2022/03/09 10:45:55;;;;;;;12.80;5.73;;;;;;;;;;5017510;28;20200;-78
2022/03/09 10:48:22;;;;;;;11.47;5.33;;;;;;;;;;5015280;28;20224;-77
2022/03/09 10:50:51;;;;;;;12.30;5.90;;;;;;;;;;5013244;28;20201;-77
2022/03/09 10:53:19;;;;;;;12.40;6.00;;;;;;;;;;5015367;28;20260;-76
2022/03/09 10:55:47;;;;;;;11.73;5.10;;;;;;;;;;5014396;28;20243;-78
2022/03/09 10:58:15;;;;;;;9.87;5.40;;;;;;;;;;5017902;28;20250;-78
2022/03/09 11:00:43;;;;;;;12.73;5.77;;;;;;;;;;5019904;28;20662;-78
2022/03/09 11:03:12;;;;;;;13.03;5.90;;;;;;;;;;5019404;28;20330;-78
2022/03/09 11:05:48;;;;;;;11.93;5.57;;;;;;;;;;5022438;28;20557;-77
2022/03/09 11:08:16;;;;;;;9.80;5.33;;;;;;;;;;5020829;28;20215;-78
2022/03/09 11:10:45;;;;;;;11.23;5.87;;;;;;;;;;5018713;28;20580;-77
2022/03/09 11:13:14;;;;;;;9.33;5.57;;;;;;;;;;5019170;28;20705;-78
2022/03/09 11:15:42;;;;;;;13.50;7.20;;;;;;;;;;5015725;28;20291;-78
2022/03/09 11:18:10;;;;;;;13.37;6.30;;;;;;;;;;5014184;28;20212;-77
2022/03/09 11:20:37;;;;;;;11.43;5.60;;;;;;;;;;5012582;28;20286;-77
2022/03/09 11:23:04;;;;;;;11.33;6.27;;;;;;;;;;5020571;28;20224;-80
2022/03/09 11:25:32;;;;;;;14.07;7.60;;;;;;;;;;5011002;28;20196;-79
2022/03/09 11:27:59;;;;;;;10.67;5.53;;;;;;;;;;5015217;28;20207;-78
2022/03/09 11:30:29;;;;;;;15.73;9.10;;;;;;;;;;5014455;28;20239;-80
2022/03/09 11:32:56;;;;;;;9.93;5.33;;;;;;;;;;5016322;28;20696;-78
2022/03/09 11:35:34;;;;;;;10.83;5.60;;;;;;;;;;5013181;28;20241;-80
2022/03/09 11:38:01;;;;;;;11.20;6.00;;;;;;;;;;5014743;28;20398;-77
2022/03/09 11:40:29;;;;;;;10.93;5.80;;;;;;;;;;5012572;28;20204;-80
2022/03/09 11:42:56;;;;;;;11.17;5.67;;;;;;;;;;5014816;28;20224;-79
2022/03/09 11:45:32;;;;;;;13.47;5.37;;;;;;;;;;5015520;28;20275;-78
2022/03/09 11:48:03;;;;;;;13.73;5.80;;;;;;;;;;5023104;28;20620;-78
2022/03/09 11:50:32;;;;;;;11.40;5.30;;;;;;;;;;5027358;28;20222;-79
2022/03/09 11:53:00;;;;;;;9.23;5.27;;;;;;;;;;5029265;28;20601;-79
2022/03/09 11:55:28;;;;;;;8.70;5.00;;;;;;;;;;5018448;28;20243;-79
2022/03/09 11:58:02;;;;;;;10.63;6.63;;;;;;;;;;5015654;28;20208;-77
2022/03/09 12:00:29;;;;;;;12.23;7.23;;;;;;;;;;5014310;28;20303;-78
2022/03/09 12:02:57;;;;;;;14.23;5.77;;;;;;;;;;5011960;28;20224;-77
2022/03/09 12:05:36;;;;;;;11.47;5.33;;;;;;;;;;5015551;28;20290;-77
2022/03/09 12:08:03;;;;;;;10.87;5.60;;;;;;;;;;5015177;28;20281;-78
2022/03/09 12:10:50;;;;;;;10.87;5.23;;;;;;;;;;5016400;28;20218;-78
2022/03/09 12:13:21;;;;;;;14.60;5.83;;;;;;;;;;5016107;28;20219;-77
2022/03/09 12:16:02;;;;;;;11.43;5.77;;;;;;;;;;5013273;28;20285;-78
2022/03/09 12:18:37;;;;;;;13.07;6.37;;;;;;;;;;5014296;28;20299;-77
2022/03/09 12:21:06;;;;;;;15.07;5.83;;;;;;;;;;5013675;28;20588;-77
2022/03/09 12:23:33;;;;;;;12.77;6.70;;;;;;;;;;5016777;28;20239;-77
2022/03/09 12:26:01;;;;;;;12.53;5.60;;;;;;;;;;5015306;28;20212;-77
2022/03/09 12:28:47;;;;;;;13.90;5.90;;;;;;;;;;5015379;28;20203;-77
2022/03/09 12:31:19;;;;;;;12.80;5.77;;;;;;;;;;5016608;28;20458;-77
2022/03/09 12:33:49;;;;;;;13.53;5.77;;;;;;;;;;5016381;28;20276;-77
2022/03/09 12:36:18;;;;;;;12.20;5.50;;;;;;;;;;5013859;28;20204;-77
2022/03/09 12:38:46;;;;;;;18.87;6.60;;;;;;;;;;5017961;28;20283;-77
2022/03/09 12:41:27;;;;;;;11.63;5.93;;;;;;;;;;5013828;28;20208;-77
2022/03/09 12:43:54;;;;;;;11.17;6.33;;;;;;;;;;5014836;28;20310;-77
2022/03/09 12:46:22;;;;;;;13.57;6.07;;;;;;;;;;5019075;28;20630;-78
2022/03/09 12:48:49;;;;;;;12.90;6.53;;;;;;;;;;5013126;28;20211;-78
2022/03/09 12:51:18;;;;;;;13.13;7.40;;;;;;;;;;5019210;28;20208;-78
2022/03/09 12:53:45;;;;;;;10.80;5.97;;;;;;;;;;5013251;28;20227;-78
2022/03/09 12:56:16;;;;;;;14.83;6.00;;;;;;;;;;5014026;28;20214;-77
2022/03/09 12:58:43;;;;;;;12.60;6.40;;;;;;;;;;5017043;28;20566;-78
2022/03/09 13:01:12;;;;;;;11.80;6.33;;;;;;;;;;5019878;28;20295;-77
2022/03/09 13:03:40;;;;;;;13.80;5.77;;;;;;;;;;5016015;28;20224;-78
2022/03/09 13:06:08;;;;;;;12.13;5.97;;;;;;;;;;5020920;28;20289;-77
2022/03/09 13:08:36;;;;;;;11.60;6.13;;;;;;;;;;5020593;28;20658;-77
2022/03/09 13:11:04;;;;;;;12.47;6.10;;;;;;;;;;5026887;28;20232;-78
2022/03/09 13:13:32;;;;;;;18.07;6.50;;;;;;;;;;5020895;28;20227;-76
2022/03/09 13:16:00;;;;;;;15.63;6.20;;;;;;;;;;5024493;28;20211;-77
2022/03/09 13:18:28;;;;;;;14.20;6.40;;;;;;;;;;5023703;28;20855;-77
2022/03/09 13:21:03;;;;;;;11.13;5.77;;;;;;;;;;5023745;28;20211;-77
2022/03/09 13:23:32;;;;;;;11.40;6.20;;;;;;;;;;5024702;28;20219;-78
2022/03/09 13:26:14;;;;;;;10.97;6.27;;;;;;;;;;5027586;28;20612;-78
2022/03/09 13:28:43;;;;;;;19.27;6.67;;;;;;;;;;5019321;28;20204;-79
2022/03/09 13:31:11;;;;;;;10.20;5.77;;;;;;;;;;5018637;28;20231;-81
2022/03/09 13:33:38;;;;;;;13.10;5.37;;;;;;;;;;5007804;28;20231;-80
2022/03/09 13:36:06;;;;;;;11.17;5.83;;;;;;;;;;5017441;28;20208;-78
2022/03/09 13:38:33;;;;;;;12.53;6.00;;;;;;;;;;5012491;28;20208;-79
2022/03/09 13:41:04;;;;;;;10.50;5.90;;;;;;;;;;5015653;28;20665;-77
2022/03/09 13:43:32;;;;;;;10.83;6.20;;;;;;;;;;5015311;28;20233;-81
2022/03/09 13:46:13;;;;;;;10.73;5.90;;;;;;;;;;5024811;28;20608;-80
2022/03/09 13:48:40;;;;;;;10.77;5.97;;;;;;;;;;5022446;28;20264;-81
2022/03/09 13:51:17;;;;;;;15.00;6.33;;;;;;;;;;5024292;28;20254;-79
2022/03/09 13:53:44;;;;;;;13.47;6.00;;;;;;;;;;5020603;28;20725;-77
2022/03/09 13:56:18;;;;;;;14.07;6.30;;;;;;;;;;5017490;28;20204;-76
2022/03/09 13:58:45;;;;;;;11.73;6.17;;;;;;;;;;5018899;28;20205;-77
2022/03/09 14:01:14;;;;;;;11.80;6.43;;;;;;;;;;5016950;28;20202;-77
2022/03/09 14:03:42;;;;;;;14.40;6.47;;;;;;;;;;5017328;28;20649;-76
2022/03/09 14:06:14;;;;;;;12.93;6.37;;;;;;;;;;5013557;28;20392;-76
2022/03/09 14:08:41;;;;;;;10.57;5.80;;;;;;;;;;5016719;28;20205;-75
2022/03/09 14:11:13;;;;;;;12.13;6.40;;;;;;;;;;5018581;28;20228;-77
2022/03/09 14:13:56;;;;;;;12.17;6.93;;;;;;;;;;5013290;28;20232;-79
2022/03/09 14:16:24;;;;;;;10.80;6.00;;;;;;;;;;5014031;28;20211;-78
2022/03/09 14:18:52;;;;;;;17.83;6.73;;;;;;;;;;5018414;28;20276;-77
2022/03/09 14:21:19;;;;;;;14.83;6.83;;;;;;;;;;5017934;28;20230;-76
2022/03/09 14:23:47;;;;;;;12.17;6.23;;;;;;;;;;5019405;28;20238;-80
2022/03/09 14:26:15;;;;;;;15.37;6.57;;;;;;;;;;5018085;28;20211;-77
2022/03/09 14:28:42;;;;;;;17.70;6.60;;;;;;;;;;5021783;28;20323;-76
2022/03/09 14:31:09;;;;;;;12.07;6.40;;;;;;;;;;5018896;28;20228;-76
2022/03/09 14:33:38;;;;;;;14.87;6.50;;;;;;;;;;5018460;28;20698;-81
2022/03/09 14:36:06;;;;;;;14.07;6.23;;;;;;;;;;5020636;28;20234;-78
2022/03/09 14:38:35;;;;;;;14.03;6.47;;;;;;;;;;5018214;28;20761;-78